Time;durP1;ratioP1;P1;durP2;ratioP2;P2;SDS_P1;SDS_P2;PMS_P1;PMS_P2;Temp;Humidity;BMP_temperature;BMP_pressure;BME280_temperature;BME280_humidity;BME280_pressure;Samples;Min_cycle;Max_cycle;Signal;HPM_P1;HPM_P2
2022/12/28 00:01:34;;;;;;;4.67;1.60;;;5.30;99.90;;;;;;5057686;28;20187;-81
2022/12/28 00:04:02;;;;;;;3.10;1.30;;;5.30;99.90;;;;;;5057037;28;20246;-81
2022/12/28 00:06:28;;;;;;;2.50;1.20;;;5.30;99.90;;;;;;5057331;28;20175;-81
2022/12/28 00:08:55;;;;;;;3.03;1.30;;;5.30;99.90;;;;;;5039015;28;20214;-80
2022/12/28 00:11:23;;;;;;;5.50;1.43;;;5.40;99.90;;;;;;5057682;28;20172;-81
2022/12/28 00:13:49;;;;;;;5.00;1.50;;;5.40;99.90;;;;;;5058387;28;20521;-81
2022/12/28 00:16:20;;;;;;;2.63;1.50;;;5.40;99.90;;;;;;5057893;28;20206;-80
2022/12/28 00:18:46;;;;;;;6.23;1.50;;;5.40;99.90;;;;;;5057414;28;20255;-81
2022/12/28 00:21:11;;;;;;;3.33;0.97;;;5.50;99.90;;;;;;5039323;28;20222;-81
2022/12/28 00:23:37;;;;;;;2.87;1.13;;;5.50;99.90;;;;;;5057080;28;20257;-81
2022/12/28 00:26:11;;;;;;;4.10;1.30;;;5.60;99.90;;;;;;5039638;28;20176;-80
2022/12/28 00:28:37;;;;;;;6.97;1.50;;;5.60;99.90;;;;;;5057358;28;20217;-81
2022/12/28 00:31:03;;;;;;;8.17;1.70;;;5.60;99.90;;;;;;5057144;28;20207;-80
2022/12/28 00:33:29;;;;;;;5.17;1.50;;;5.60;99.90;;;;;;5039518;28;20178;-80
2022/12/28 00:35:56;;;;;;;4.07;1.30;;;5.60;99.90;;;;;;5039717;28;20197;-80
2022/12/28 00:38:22;;;;;;;4.73;1.47;;;5.60;99.90;;;;;;5057345;28;20544;-81
2022/12/28 00:40:47;;;;;;;4.27;1.40;;;5.60;99.90;;;;;;5057017;28;20258;-80
2022/12/28 00:43:13;;;;;;;3.20;1.40;;;5.60;99.90;;;;;;5057071;28;20199;-80
2022/12/28 00:45:42;;;;;;;3.67;1.47;;;5.50;99.90;;;;;;5039107;28;20187;-80
2022/12/28 00:48:07;;;;;;;3.57;1.30;;;5.50;99.90;;;;;;5039002;28;20218;-80
2022/12/28 00:50:33;;;;;;;2.57;1.50;;;5.50;99.90;;;;;;5039118;28;20274;-80
2022/12/28 00:52:58;;;;;;;6.50;1.73;;;5.50;99.90;;;;;;5057307;28;20184;-80
2022/12/28 00:55:24;;;;;;;5.63;1.50;;;5.50;99.90;;;;;;5056572;28;20175;-80
2022/12/28 00:57:49;;;;;;;6.03;1.77;;;5.50;99.90;;;;;;5055877;28;20221;-80
2022/12/28 01:00:15;;;;;;;6.90;1.53;;;5.50;99.90;;;;;;5056162;28;20265;-80
2022/12/28 01:02:41;;;;;;;2.73;1.60;;;5.50;99.90;;;;;;5038741;28;20234;-80
2022/12/28 01:05:07;;;;;;;5.47;1.50;;;5.50;99.90;;;;;;5057318;28;20184;-80
2022/12/28 01:07:32;;;;;;;7.03;1.50;;;5.50;99.90;;;;;;5056603;28;20204;-80
2022/12/28 01:09:58;;;;;;;3.33;1.37;;;5.50;99.90;;;;;;5057037;28;20201;-80
2022/12/28 01:12:23;;;;;;;3.20;1.43;;;5.50;99.90;;;;;;5056358;28;20183;-80
2022/12/28 01:14:49;;;;;;;2.33;1.40;;;5.50;99.90;;;;;;5038278;28;20591;-80
2022/12/28 01:17:14;;;;;;;2.57;1.30;;;5.50;99.90;;;;;;5039103;28;20274;-80
2022/12/28 01:19:40;;;;;;;7.43;1.70;;;5.60;99.90;;;;;;5057428;28;20282;-80
2022/12/28 01:22:05;;;;;;;5.43;1.20;;;5.60;99.90;;;;;;5056617;28;20230;-80
2022/12/28 01:24:31;;;;;;;3.67;1.43;;;5.50;99.90;;;;;;5057079;28;20562;-81
2022/12/28 01:26:56;;;;;;;5.37;1.57;;;5.60;99.90;;;;;;5039560;28;20270;-80
2022/12/28 01:29:22;;;;;;;5.70;1.90;;;5.50;99.90;;;;;;5056917;28;20351;-81
2022/12/28 01:31:47;;;;;;;5.30;1.60;;;5.60;99.90;;;;;;5039660;28;20172;-80
2022/12/28 01:34:13;;;;;;;3.27;1.37;;;5.50;99.90;;;;;;5040074;28;20175;-80
2022/12/28 01:36:38;;;;;;;2.30;1.33;;;5.50;99.90;;;;;;5056934;28;20171;-80
2022/12/28 01:39:05;;;;;;;4.47;1.77;;;5.60;99.90;;;;;;5038036;28;20243;-81
2022/12/28 01:41:34;;;;;;;5.90;1.70;;;5.60;99.90;;;;;;5055742;28;20661;-80
2022/12/28 01:44:00;;;;;;;3.43;1.60;;;5.60;99.90;;;;;;5055347;28;20233;-80
2022/12/28 01:46:39;;;;;;;3.90;1.60;;;5.60;99.90;;;;;;5054831;28;20175;-81
2022/12/28 01:49:13;;;;;;;5.50;1.60;;;5.60;99.90;;;;;;5037224;28;20680;-81
2022/12/28 01:52:00;;;;;;;7.67;2.20;;;5.60;99.90;;;;;;5036957;28;20267;-81
2022/12/28 01:54:29;;;;;;;6.37;1.80;;;5.60;99.90;;;;;;5037059;28;20771;-81
2022/12/28 01:56:55;;;;;;;4.00;1.70;;;5.60;99.90;;;;;;5054953;28;20645;-81
2022/12/28 01:59:24;;;;;;;2.63;1.67;;;5.60;99.90;;;;;;5037520;28;20199;-80
2022/12/28 02:01:50;;;;;;;5.07;1.77;;;5.70;99.90;;;;;;5054907;28;20210;-81
2022/12/28 02:04:16;;;;;;;2.77;1.73;;;5.70;99.90;;;;;;5036546;28;20548;-80
2022/12/28 02:06:42;;;;;;;8.00;2.20;;;5.70;99.90;;;;;;5036461;28;20187;-81
2022/12/28 02:09:21;;;;;;;2.40;1.40;;;5.70;99.90;;;;;;5054570;28;20285;-81
2022/12/28 02:11:48;;;;;;;3.53;1.50;;;5.70;99.90;;;;;;5040425;28;20179;-81
2022/12/28 02:14:14;;;;;;;3.97;2.10;;;5.70;99.90;;;;;;5040732;28;20175;-80
2022/12/28 02:16:42;;;;;;;4.83;1.47;;;5.80;99.90;;;;;;5058485;28;20184;-81
2022/12/28 02:19:10;;;;;;;3.63;1.73;;;5.80;99.90;;;;;;5058374;28;20673;-80
2022/12/28 02:21:54;;;;;;;3.00;1.60;;;5.80;99.90;;;;;;5040489;28;20215;-81
2022/12/28 02:24:53;;;;;;;5.33;2.00;;;5.80;99.90;;;;;;5040405;28;20246;-80
2022/12/28 02:27:41;;;;;;;4.23;1.63;;;5.80;99.90;;;;;;5040059;28;20222;-81
2022/12/28 02:30:09;;;;;;;3.03;1.27;;;5.90;99.90;;;;;;5058057;28;20673;-81
2022/12/28 02:32:58;;;;;;;3.57;1.77;;;5.90;99.90;;;;;;5039851;28;20197;-81
2022/12/28 02:35:47;;;;;;;4.77;1.67;;;5.90;99.90;;;;;;5040403;28;20168;-80
2022/12/28 02:38:26;;;;;;;3.60;1.40;;;6.00;99.90;;;;;;5058618;28;20155;-80
2022/12/28 02:40:54;;;;;;;3.97;1.90;;;6.00;99.90;;;;;;5058085;28;20596;-80
2022/12/28 02:43:20;;;;;;;4.63;1.20;;;6.00;99.90;;;;;;5058182;28;20579;-80
2022/12/28 02:51:57;;;;;;;2.87;1.20;;;6.10;99.90;;;;;;5059190;28;20163;-81
2022/12/28 02:57:32;;;;;;;3.03;1.33;;;6.10;99.90;;;;;;5058249;28;20202;-81
2022/12/28 03:00:20;;;;;;;5.13;1.40;;;6.20;99.90;;;;;;5058175;28;20208;-81
2022/12/28 03:03:09;;;;;;;4.57;1.40;;;6.20;99.90;;;;;;5057706;28;20172;-80
2022/12/28 03:09:09;;;;;;;2.47;1.40;;;6.30;99.90;;;;;;5057764;28;20337;-80
2022/12/28 03:11:37;;;;;;;3.80;1.50;;;6.30;99.90;;;;;;5058433;28;20225;-80
2022/12/28 03:14:11;;;;;;;4.23;1.57;;;6.40;99.90;;;;;;5057696;28;20237;-81
2022/12/28 03:31:06;;;;;;;2.50;1.43;;;6.50;99.90;;;;;;5058126;28;20162;-80
2022/12/28 03:33:40;;;;;;;2.50;1.40;;;6.60;99.90;;;;;;5058295;28;20191;-80
2022/12/28 03:36:19;;;;;;;2.17;1.47;;;6.60;99.90;;;;;;5040053;28;20166;-80
2022/12/28 03:38:55;;;;;;;5.97;1.50;;;6.50;99.90;;;;;;5039922;28;20191;-80
2022/12/28 03:41:38;;;;;;;2.93;1.50;;;6.60;99.90;;;;;;5057679;28;20167;-81
2022/12/28 03:44:17;;;;;;;3.50;1.40;;;6.60;99.90;;;;;;5040215;28;20183;-80
2022/12/28 03:47:01;;;;;;;4.57;1.50;;;6.60;99.90;;;;;;5058378;28;20163;-80
2022/12/28 03:49:27;;;;;;;2.27;1.20;;;6.60;99.90;;;;;;5057777;28;20283;-81
2022/12/28 03:51:54;;;;;;;3.53;1.40;;;6.60;99.90;;;;;;5040030;28;20191;-80
2022/12/28 03:54:20;;;;;;;1.70;1.10;;;6.70;99.90;;;;;;5057330;28;20160;-80
2022/12/28 03:56:47;;;;;;;3.20;1.30;;;6.70;99.90;;;;;;5057216;28;20693;-80
2022/12/28 03:59:14;;;;;;;4.30;1.30;;;6.70;99.90;;;;;;5038938;28;20760;-81
2022/12/28 04:01:40;;;;;;;1.83;1.20;;;6.70;99.90;;;;;;5039225;28;20243;-81
2022/12/28 04:04:05;;;;;;;3.00;1.30;;;6.80;99.90;;;;;;5057318;28;20199;-80
2022/12/28 04:06:31;;;;;;;4.00;1.20;;;6.80;99.90;;;;;;5038619;28;20603;-80
2022/12/28 04:08:56;;;;;;;2.27;1.30;;;6.80;99.90;;;;;;5038312;28;20218;-81
2022/12/28 04:11:22;;;;;;;2.27;1.10;;;6.80;99.90;;;;;;5038629;28;20223;-81
2022/12/28 04:13:47;;;;;;;5.23;1.10;;;6.80;99.90;;;;;;5056168;28;20316;-81
2022/12/28 04:16:13;;;;;;;4.33;1.40;;;6.90;99.90;;;;;;5038296;28;20270;-80
2022/12/28 04:18:40;;;;;;;2.77;0.80;;;6.90;99.90;;;;;;5055954;28;20182;-81
2022/12/28 04:21:07;;;;;;;2.63;1.17;;;6.90;99.90;;;;;;5038160;28;20183;-81
2022/12/28 04:23:33;;;;;;;1.77;1.43;;;6.90;99.90;;;;;;5042311;28;20183;-80
2022/12/28 04:26:13;;;;;;;2.23;1.10;;;7.00;99.90;;;;;;5063735;28;20527;-80
2022/12/28 04:28:39;;;;;;;2.50;1.00;;;7.00;99.90;;;;;;5040425;28;20622;-81
2022/12/28 04:31:06;;;;;;;4.77;1.33;;;7.10;99.90;;;;;;5056416;28;20179;-81
2022/12/28 04:33:33;;;;;;;2.80;1.30;;;7.10;99.90;;;;;;5038150;28;20193;-80
2022/12/28 04:36:13;;;;;;;1.93;0.93;;;7.10;99.90;;;;;;5059104;28;20168;-79
2022/12/28 04:38:39;;;;;;;3.20;1.37;;;7.20;99.90;;;;;;5059170;28;20159;-80
2022/12/28 04:41:06;;;;;;;2.23;1.20;;;7.20;99.90;;;;;;5041996;28;20184;-80
2022/12/28 04:43:32;;;;;;;4.43;1.40;;;7.30;99.90;;;;;;5041209;28;20185;-80
2022/12/28 04:46:08;;;;;;;2.23;1.20;;;7.40;99.90;;;;;;5041214;28;20273;-80
2022/12/28 04:48:34;;;;;;;1.00;0.90;;;7.40;99.90;;;;;;5039898;28;20324;-81
2022/12/28 04:51:24;;;;;;;1.90;1.13;;;7.50;99.90;;;;;;5056659;28;20229;-80
2022/12/28 04:53:50;;;;;;;4.77;1.20;;;7.50;99.90;;;;;;5057477;28;20184;-80
2022/12/28 04:56:17;;;;;;;1.50;1.40;;;7.50;99.90;;;;;;5040523;28;20179;-80
2022/12/28 04:58:43;;;;;;;2.53;1.27;;;7.60;99.90;;;;;;5057979;28;20240;-80
2022/12/28 05:01:11;;;;;;;2.53;1.20;;;7.60;99.90;;;;;;5058321;28;20239;-80
2022/12/28 05:03:39;;;;;;;3.57;1.20;;;7.70;99.90;;;;;;5040109;28;20195;-80
2022/12/28 05:06:09;;;;;;;2.63;1.10;;;7.70;99.90;;;;;;5040472;28;20179;-80
2022/12/28 05:08:36;;;;;;;3.57;1.27;;;7.70;99.90;;;;;;5040664;28;20214;-80
2022/12/28 05:11:03;;;;;;;2.37;1.10;;;7.90;99.90;;;;;;5058952;28;20183;-80
2022/12/28 05:13:29;;;;;;;3.17;1.30;;;7.90;99.90;;;;;;5057747;28;20254;-81
2022/12/28 05:15:59;;;;;;;3.13;1.37;;;7.90;99.90;;;;;;5056342;28;20235;-80
2022/12/28 05:18:24;;;;;;;3.37;1.17;;;7.90;99.90;;;;;;5056568;28;20183;-80
2022/12/28 05:20:50;;;;;;;2.20;1.33;;;7.90;99.90;;;;;;5039655;28;20186;-80
2022/12/28 05:23:15;;;;;;;3.00;1.43;;;7.90;99.90;;;;;;5057970;28;20183;-80
2022/12/28 05:25:41;;;;;;;4.33;1.43;;;7.90;99.90;;;;;;5039310;28;20194;-79
2022/12/28 05:28:06;;;;;;;3.27;1.27;;;7.90;99.90;;;;;;5039248;28;20211;-80
2022/12/28 05:30:32;;;;;;;3.13;1.30;;;8.00;99.90;;;;;;5038228;28;20260;-80
2022/12/28 05:32:57;;;;;;;7.80;1.43;;;8.00;99.90;;;;;;5038419;28;20641;-80
2022/12/28 05:35:23;;;;;;;5.30;1.50;;;8.10;99.90;;;;;;5038037;28;20179;-80
2022/12/28 05:37:48;;;;;;;3.40;1.60;;;8.10;99.90;;;;;;5056285;28;20172;-80
2022/12/28 05:40:14;;;;;;;2.40;1.40;;;8.20;99.90;;;;;;5057291;28;20191;-80
2022/12/28 05:42:39;;;;;;;4.93;1.23;;;8.40;99.90;;;;;;5057519;28;20183;-80
2022/12/28 05:45:05;;;;;;;3.93;1.23;;;8.40;99.90;;;;;;5058333;28;20175;-78
2022/12/28 05:47:31;;;;;;;6.30;1.50;;;8.30;99.90;;;;;;5057209;28;20586;-78
2022/12/28 05:49:56;;;;;;;2.73;1.97;;;8.30;99.90;;;;;;5039695;28;20203;-80
2022/12/28 05:52:22;;;;;;;1.80;1.37;;;8.30;99.90;;;;;;5043783;28;20176;-79
2022/12/28 05:54:47;;;;;;;4.47;1.50;;;8.30;99.90;;;;;;5043445;28;20175;-80
2022/12/28 05:57:13;;;;;;;2.60;1.40;;;8.30;99.90;;;;;;5043537;28;20195;-80
2022/12/28 05:59:38;;;;;;;3.23;1.40;;;8.20;99.90;;;;;;5043315;28;20211;-80
2022/12/28 06:02:04;;;;;;;4.03;1.30;;;8.20;99.90;;;;;;5061495;28;20179;-80
2022/12/28 06:04:29;;;;;;;4.83;1.50;;;8.20;99.90;;;;;;5062299;28;20176;-80
2022/12/28 06:06:55;;;;;;;1.43;1.10;;;8.30;99.90;;;;;;5060649;28;20179;-81
2022/12/28 06:09:20;;;;;;;3.07;1.47;;;8.30;99.90;;;;;;5060567;28;20276;-80
2022/12/28 06:11:46;;;;;;;3.27;1.33;;;8.30;99.90;;;;;;5061235;28;20163;-80
2022/12/28 06:14:11;;;;;;;4.00;1.40;;;8.30;99.90;;;;;;5041507;28;20590;-81
2022/12/28 06:16:39;;;;;;;3.27;1.27;;;8.30;99.90;;;;;;5059481;28;20171;-80
2022/12/28 06:19:07;;;;;;;3.33;1.20;;;8.40;99.90;;;;;;5041397;28;20198;-80
2022/12/28 06:21:36;;;;;;;2.37;1.30;;;8.40;99.90;;;;;;5041465;28;20172;-80
2022/12/28 06:24:02;;;;;;;5.37;1.60;;;8.50;99.90;;;;;;5059947;28;20551;-80
2022/12/28 06:26:30;;;;;;;3.00;1.27;;;8.50;99.90;;;;;;5041779;28;20179;-80
2022/12/28 06:28:57;;;;;;;4.57;1.40;;;8.40;99.90;;;;;;5059450;28;20203;-80
2022/12/28 06:31:24;;;;;;;4.53;1.33;;;8.40;99.90;;;;;;5040471;28;20675;-80
2022/12/28 06:33:52;;;;;;;2.70;1.27;;;8.40;99.90;;;;;;5057843;28;20164;-80
2022/12/28 06:36:23;;;;;;;1.63;1.10;;;8.40;99.90;;;;;;5057919;28;20175;-80
2022/12/28 06:38:51;;;;;;;2.93;1.10;;;8.40;99.90;;;;;;5041646;28;20202;-80
2022/12/28 06:41:18;;;;;;;2.17;1.13;;;8.50;99.90;;;;;;5061151;28;20183;-80
2022/12/28 06:43:45;;;;;;;3.57;0.90;;;8.60;99.90;;;;;;5042035;28;20171;-80
2022/12/28 06:46:11;;;;;;;1.97;0.90;;;8.60;99.90;;;;;;5058904;28;20179;-80
2022/12/28 06:48:37;;;;;;;3.17;1.00;;;8.60;99.90;;;;;;5040971;28;20199;-80
2022/12/28 06:51:04;;;;;;;3.80;1.00;;;8.60;99.90;;;;;;5058886;28;20185;-79
2022/12/28 06:53:33;;;;;;;1.20;0.73;;;8.50;99.90;;;;;;5041113;28;20179;-80
2022/12/28 06:56:01;;;;;;;2.40;1.10;;;8.60;99.90;;;;;;5040096;28;20607;-80
2022/12/28 06:58:28;;;;;;;3.27;1.13;;;8.50;99.90;;;;;;5058029;28;20219;-79
2022/12/28 07:00:54;;;;;;;3.13;1.10;;;8.50;99.90;;;;;;5040605;28;20180;-80
2022/12/28 07:03:20;;;;;;;4.03;1.37;;;8.50;99.90;;;;;;5040810;28;20550;-79
2022/12/28 07:05:46;;;;;;;3.90;1.00;;;8.50;99.90;;;;;;5058397;28;20611;-80
2022/12/28 07:08:12;;;;;;;3.30;1.33;;;8.40;99.90;;;;;;5058537;28;20242;-79
2022/12/28 07:10:38;;;;;;;3.73;1.03;;;8.50;99.90;;;;;;5059055;28;20195;-79
2022/12/28 07:13:03;;;;;;;3.83;1.23;;;8.50;99.90;;;;;;5041224;28;20199;-79
2022/12/28 07:15:29;;;;;;;2.07;1.07;;;8.50;99.90;;;;;;5041236;28;20229;-79
2022/12/28 07:17:54;;;;;;;1.50;1.00;;;8.50;99.90;;;;;;5040858;28;20649;-80
2022/12/28 07:20:20;;;;;;;3.43;1.00;;;8.50;99.90;;;;;;5057896;28;20210;-80
2022/12/28 07:22:45;;;;;;;1.50;1.03;;;8.50;99.90;;;;;;5057888;28;20671;-80
2022/12/28 07:25:11;;;;;;;3.90;1.43;;;8.60;99.90;;;;;;5059079;28;20171;-80
2022/12/28 07:27:37;;;;;;;2.50;1.10;;;8.60;99.90;;;;;;5040650;28;20203;-80
2022/12/28 07:30:03;;;;;;;4.73;1.43;;;8.60;99.90;;;;;;5058257;28;20187;-80
2022/12/28 07:32:28;;;;;;;3.83;1.10;;;8.70;99.90;;;;;;5058733;28;20172;-80
2022/12/28 07:34:54;;;;;;;2.97;1.03;;;8.60;99.90;;;;;;5058640;28;20168;-79
2022/12/28 07:37:20;;;;;;;3.67;0.90;;;8.60;99.90;;;;;;5058480;28;20163;-79
2022/12/28 07:39:45;;;;;;;4.07;1.20;;;8.60;99.90;;;;;;5039597;28;20571;-79
2022/12/28 07:42:11;;;;;;;4.07;1.00;;;8.60;99.90;;;;;;5057645;28;20178;-79
2022/12/28 07:44:37;;;;;;;2.47;1.17;;;8.60;99.90;;;;;;5057139;28;20662;-79
2022/12/28 07:47:03;;;;;;;1.93;0.97;;;8.60;99.90;;;;;;5057503;28;20172;-79
2022/12/28 07:49:28;;;;;;;1.90;1.00;;;8.60;99.90;;;;;;5057544;28;20213;-79
2022/12/28 07:51:54;;;;;;;2.50;0.80;;;8.60;99.90;;;;;;5058239;28;20228;-79
2022/12/28 07:54:19;;;;;;;4.83;1.07;;;8.50;99.90;;;;;;5057104;28;20546;-80
2022/12/28 07:56:45;;;;;;;2.77;0.87;;;8.60;99.90;;;;;;5057381;28;20179;-78
2022/12/28 07:59:13;;;;;;;2.07;0.90;;;8.60;99.90;;;;;;5036946;28;20195;-78
2022/12/28 08:01:39;;;;;;;3.17;0.90;;;8.60;99.90;;;;;;5053692;28;20183;-77
2022/12/28 08:04:08;;;;;;;2.47;1.20;;;8.60;99.90;;;;;;5053789;28;20172;-77
2022/12/28 08:06:37;;;;;;;2.23;1.00;;;8.60;99.90;;;;;;5035837;28;20225;-77
2022/12/28 08:09:04;;;;;;;2.97;0.90;;;8.70;99.90;;;;;;5034776;28;20208;-77
2022/12/28 08:11:32;;;;;;;1.30;0.90;;;8.70;99.90;;;;;;5053798;28;20164;-77
2022/12/28 08:14:00;;;;;;;2.57;1.10;;;8.70;99.90;;;;;;5053526;28;20170;-78
2022/12/28 08:16:29;;;;;;;3.80;0.90;;;8.80;99.90;;;;;;5054475;28;20164;-78
2022/12/28 08:18:55;;;;;;;3.83;1.00;;;8.70;99.90;;;;;;5053977;28;20191;-77
2022/12/28 08:21:29;;;;;;;2.57;1.13;;;8.80;99.90;;;;;;5054631;28;20172;-78
2022/12/28 08:23:55;;;;;;;1.30;0.87;;;8.80;99.90;;;;;;5053486;28;20210;-77
2022/12/28 08:26:23;;;;;;;3.80;1.00;;;8.80;99.90;;;;;;5035007;28;20376;-78
2022/12/28 08:28:51;;;;;;;2.83;0.80;;;8.80;99.90;;;;;;5051753;28;20207;-77
2022/12/28 08:31:20;;;;;;;2.90;0.73;;;8.80;99.90;;;;;;5051891;28;20255;-77
2022/12/28 08:33:46;;;;;;;1.30;0.70;;;8.80;99.90;;;;;;5051877;28;20168;-78
2022/12/28 08:36:12;;;;;;;1.37;0.70;;;8.90;99.90;;;;;;5052195;28;20259;-78
2022/12/28 08:38:39;;;;;;;4.33;0.90;;;8.90;99.90;;;;;;5033778;28;20239;-78
2022/12/28 08:41:07;;;;;;;1.90;0.90;;;8.90;99.90;;;;;;5033550;28;20270;-78
2022/12/28 08:43:33;;;;;;;0.67;0.63;;;9.10;99.90;;;;;;5051648;28;20179;-79
2022/12/28 08:46:04;;;;;;;2.27;0.80;;;9.10;99.90;;;;;;5035407;28;20203;-78
2022/12/28 08:48:30;;;;;;;0.80;0.77;;;9.10;99.90;;;;;;5035225;28;20278;-77
2022/12/28 08:51:01;;;;;;;1.17;0.80;;;9.10;99.90;;;;;;5035674;28;20273;-78
2022/12/28 08:53:27;;;;;;;1.97;0.80;;;9.20;99.90;;;;;;5053252;28;20186;-77
2022/12/28 08:55:52;;;;;;;2.23;1.13;;;9.20;99.90;;;;;;5053212;28;20176;-77
2022/12/28 08:58:18;;;;;;;3.67;0.83;;;9.20;99.90;;;;;;5052869;28;20196;-78
2022/12/28 09:00:44;;;;;;;2.37;0.80;;;9.20;99.90;;;;;;5034968;28;20195;-78
2022/12/28 09:03:09;;;;;;;2.40;0.90;;;9.20;99.90;;;;;;5052917;28;20664;-78
2022/12/28 09:05:39;;;;;;;0.80;0.50;;;9.20;99.90;;;;;;5052877;28;20171;-77
2022/12/28 09:08:04;;;;;;;1.83;0.70;;;9.30;99.90;;;;;;5052844;28;20198;-78
2022/12/28 09:10:30;;;;;;;2.17;0.57;;;9.30;99.90;;;;;;5053178;28;20325;-78
2022/12/28 09:12:56;;;;;;;4.40;0.80;;;9.30;99.90;;;;;;5053082;28;20704;-78
2022/12/28 09:15:21;;;;;;;2.93;0.60;;;9.30;99.90;;;;;;5053246;28;20217;-78
2022/12/28 09:17:47;;;;;;;1.77;0.80;;;9.30;99.90;;;;;;5053237;28;20302;-78
2022/12/28 09:20:13;;;;;;;4.10;0.83;;;9.40;99.90;;;;;;5056413;28;20557;-78
2022/12/28 09:22:38;;;;;;;1.20;0.70;;;9.50;99.90;;;;;;5057657;28;20258;-79
2022/12/28 09:25:04;;;;;;;2.53;0.60;;;9.50;99.90;;;;;;5040576;28;20172;-78
2022/12/28 09:27:30;;;;;;;0.70;0.60;;;9.60;99.90;;;;;;5063296;28;20172;-79
2022/12/28 09:29:55;;;;;;;1.70;0.70;;;9.70;99.90;;;;;;5045051;28;20187;-78
2022/12/28 09:32:21;;;;;;;1.53;0.63;;;9.60;99.90;;;;;;5057210;28;20172;-77
2022/12/28 09:34:46;;;;;;;1.60;0.83;;;9.60;99.90;;;;;;5056591;28;20645;-77
2022/12/28 09:37:12;;;;;;;2.43;0.80;;;9.70;99.90;;;;;;5056552;28;20712;-77
2022/12/28 09:39:37;;;;;;;2.27;0.70;;;9.70;99.90;;;;;;5038586;28;20707;-78
2022/12/28 09:42:22;;;;;;;1.87;1.10;;;9.70;99.90;;;;;;5057148;28;20175;-77
2022/12/28 09:44:52;;;;;;;3.87;0.80;;;9.80;99.90;;;;;;5056458;28;20156;-75
2022/12/28 09:47:38;;;;;;;3.27;0.77;;;9.80;99.90;;;;;;5038290;28;20183;-76
2022/12/28 09:50:15;;;;;;;2.10;0.70;;;9.80;99.90;;;;;;5038309;28;20321;-76
2022/12/28 09:53:15;;;;;;;1.83;0.67;;;9.80;99.90;;;;;;5038301;28;20175;-77
2022/12/28 09:55:50;;;;;;;0.67;0.60;;;9.80;99.90;;;;;;5056460;28;20164;-76
2022/12/28 09:58:16;;;;;;;1.57;0.60;;;9.80;99.90;;;;;;5038083;28;20680;-76
2022/12/28 10:00:47;;;;;;;0.67;0.60;;;9.80;99.90;;;;;;5055940;28;20294;-76
2022/12/28 10:03:35;;;;;;;3.70;0.90;;;9.80;99.90;;;;;;5038126;28;20187;-76
2022/12/28 10:06:02;;;;;;;0.53;0.43;;;9.80;99.90;;;;;;5038110;28;20191;-76
2022/12/28 10:08:28;;;;;;;0.83;0.57;;;9.80;99.90;;;;;;5055827;28;20235;-77
2022/12/28 10:10:59;;;;;;;1.70;0.50;;;9.80;99.90;;;;;;5055916;28;20260;-77
2022/12/28 10:13:31;;;;;;;2.63;0.70;;;9.80;99.90;;;;;;5038000;28;20172;-77
2022/12/28 10:15:57;;;;;;;1.23;0.50;;;9.80;99.90;;;;;;5056681;28;20152;-78
2022/12/28 10:18:26;;;;;;;0.90;0.70;;;9.90;99.90;;;;;;5055770;28;20668;-78
2022/12/28 10:20:54;;;;;;;1.07;0.70;;;10.00;99.90;;;;;;5056155;28;20235;-77
2022/12/28 10:23:26;;;;;;;3.50;0.60;;;10.00;99.90;;;;;;5056065;28;20179;-78
2022/12/28 10:25:55;;;;;;;0.80;0.60;;;10.00;99.90;;;;;;5055611;28;20649;-78
2022/12/28 10:28:24;;;;;;;1.03;0.87;;;10.00;99.90;;;;;;5055973;28;20203;-78
2022/12/28 10:31:08;;;;;;;1.70;0.80;;;10.10;99.90;;;;;;5055051;28;20172;-78
2022/12/28 10:33:38;;;;;;;2.00;0.80;;;10.00;99.90;;;;;;5037670;28;20175;-78
2022/12/28 10:36:04;;;;;;;3.60;0.70;;;10.00;99.90;;;;;;5038066;28;20551;-78
2022/12/28 10:38:32;;;;;;;2.03;0.60;;;10.00;99.90;;;;;;5055600;28;20179;-78
2022/12/28 10:41:08;;;;;;;4.40;1.07;;;10.00;99.90;;;;;;5038265;28;20179;-79
2022/12/28 10:43:36;;;;;;;5.17;0.80;;;10.00;99.90;;;;;;5056655;28;20554;-79
2022/12/28 10:46:05;;;;;;;3.57;0.90;;;10.10;99.90;;;;;;5038848;28;20190;-78
2022/12/28 10:48:43;;;;;;;1.10;0.53;;;10.10;99.90;;;;;;5038438;28;20199;-79
2022/12/28 10:51:17;;;;;;;0.77;0.50;;;10.10;99.90;;;;;;5038540;28;20179;-78
2022/12/28 10:53:50;;;;;;;1.23;0.57;;;10.10;99.90;;;;;;5038139;28;20213;-78
2022/12/28 10:56:42;;;;;;;1.30;0.70;;;10.20;99.90;;;;;;5038571;28;20255;-78
2022/12/28 10:59:14;;;;;;;4.77;0.80;;;10.20;99.90;;;;;;5056097;28;20207;-79
2022/12/28 11:01:41;;;;;;;2.53;0.90;;;10.20;99.90;;;;;;5056094;28;20525;-78
2022/12/28 11:04:20;;;;;;;1.23;0.80;;;10.20;99.90;;;;;;5038004;28;20179;-79
2022/12/28 11:07:00;;;;;;;1.10;0.53;;;10.30;99.90;;;;;;5038086;28;20199;-78
2022/12/28 11:09:34;;;;;;;1.37;0.57;;;10.30;99.90;;;;;;5056185;28;20282;-78
2022/12/28 11:12:24;;;;;;;1.07;0.50;;;10.20;99.90;;;;;;5056100;28;20242;-78
2022/12/28 11:14:55;;;;;;;3.13;0.77;;;10.20;99.90;;;;;;5038337;28;20175;-78
2022/12/28 11:17:23;;;;;;;3.00;0.90;;;10.30;99.90;;;;;;5037820;28;20182;-79
2022/12/28 11:19:54;;;;;;;1.43;0.53;;;10.40;99.90;;;;;;5055668;28;20188;-78
2022/12/28 11:22:26;;;;;;;1.33;0.80;;;10.40;99.90;;;;;;5038216;28;20168;-79
2022/12/28 11:24:51;;;;;;;0.50;0.50;;;10.40;99.90;;;;;;5055705;28;20172;-78
2022/12/28 11:27:20;;;;;;;1.67;0.87;;;10.30;99.90;;;;;;5037584;28;20176;-78
2022/12/28 11:29:49;;;;;;;1.50;0.77;;;10.30;99.90;;;;;;5037021;28;20669;-78
2022/12/28 11:32:38;;;;;;;1.50;0.70;;;10.30;99.90;;;;;;5037633;28;20611;-78
2022/12/28 11:35:05;;;;;;;0.90;0.70;;;10.30;99.90;;;;;;5055162;28;20159;-78
2022/12/28 11:37:30;;;;;;;1.83;1.00;;;10.30;99.90;;;;;;5038320;28;20602;-78
2022/12/28 11:39:57;;;;;;;1.20;0.70;;;10.40;99.90;;;;;;5054972;28;20198;-78
2022/12/28 11:42:35;;;;;;;5.73;1.10;;;10.40;99.90;;;;;;5054465;28;20167;-78
2022/12/28 11:45:11;;;;;;;0.87;0.70;;;10.40;99.90;;;;;;5036975;28;20567;-78
2022/12/28 11:47:37;;;;;;;2.60;0.97;;;10.30;99.90;;;;;;5054883;28;20245;-78
2022/12/28 11:50:35;;;;;;;1.00;0.80;;;10.30;99.90;;;;;;5054102;28;20196;-80
2022/12/28 11:53:02;;;;;;;1.43;0.90;;;10.30;99.90;;;;;;5054106;28;20195;-78
2022/12/28 11:55:49;;;;;;;0.63;0.50;;;10.40;99.90;;;;;;5053773;28;20206;-77
2022/12/28 11:58:30;;;;;;;1.33;0.67;;;10.40;99.90;;;;;;5036039;28;20199;-77
2022/12/28 12:00:58;;;;;;;1.90;0.80;;;10.40;99.90;;;;;;5053900;28;20169;-78
2022/12/28 12:03:55;;;;;;;2.00;1.07;;;10.40;99.90;;;;;;5053888;28;20179;-77
2022/12/28 12:06:40;;;;;;;3.60;1.00;;;10.40;99.90;;;;;;5053876;28;20719;-76
2022/12/28 12:09:21;;;;;;;1.40;0.80;;;10.40;99.90;;;;;;5053351;28;20637;-77
2022/12/28 12:11:57;;;;;;;1.93;0.77;;;10.40;99.90;;;;;;5053581;28;20655;-76
2022/12/28 12:14:36;;;;;;;2.47;0.73;;;10.40;99.90;;;;;;5053521;28;20156;-77
2022/12/28 12:17:12;;;;;;;1.40;0.80;;;10.40;99.90;;;;;;5035615;28;20163;-76
2022/12/28 12:19:41;;;;;;;1.63;0.63;;;10.40;99.90;;;;;;5053687;28;20191;-77
2022/12/28 12:22:30;;;;;;;2.87;0.90;;;10.40;99.90;;;;;;5053296;28;20254;-77
2022/12/28 12:25:17;;;;;;;3.47;1.00;;;10.50;99.90;;;;;;5054542;28;20199;-81
2022/12/28 12:27:47;;;;;;;2.10;0.70;;;10.40;99.90;;;;;;5055066;28;20282;-79
2022/12/28 12:30:16;;;;;;;1.30;0.80;;;10.40;99.90;;;;;;5054921;28;20180;-79
2022/12/28 12:32:45;;;;;;;1.27;0.80;;;10.40;99.90;;;;;;5054529;28;20183;-78
2022/12/28 12:35:15;;;;;;;1.23;0.80;;;10.40;99.90;;;;;;5035964;28;20179;-77
2022/12/28 12:37:48;;;;;;;4.33;0.97;;;10.40;99.90;;;;;;5053047;28;20186;-77
2022/12/28 12:40:26;;;;;;;2.07;0.87;;;10.40;99.90;;;;;;5034958;28;20234;-77
2022/12/28 12:43:15;;;;;;;1.13;0.77;;;10.40;99.90;;;;;;5053562;28;20602;-77
2022/12/28 12:45:59;;;;;;;4.90;0.80;;;10.30;99.90;;;;;;5052974;28;20171;-77
2022/12/28 12:48:45;;;;;;;0.67;0.63;;;10.30;99.90;;;;;;5052712;28;20277;-77
2022/12/28 12:51:22;;;;;;;1.57;0.70;;;10.30;99.90;;;;;;5053471;28;20159;-76
2022/12/28 12:54:21;;;;;;;0.60;0.60;;;10.20;99.90;;;;;;5052265;28;20162;-76
2022/12/28 12:57:02;;;;;;;2.07;0.70;;;10.20;99.90;;;;;;5053186;28;20171;-77
2022/12/28 12:59:46;;;;;;;2.03;0.80;;;10.10;99.90;;;;;;5052686;28;20195;-77
2022/12/28 13:02:31;;;;;;;0.53;0.50;;;10.10;99.90;;;;;;5034805;28;20202;-77
2022/12/28 13:05:00;;;;;;;1.37;0.70;;;10.00;99.90;;;;;;5052825;28;20225;-77
2022/12/28 13:07:26;;;;;;;0.83;0.50;;;10.00;99.90;;;;;;5052663;28;20168;-76
2022/12/28 13:09:55;;;;;;;0.77;0.50;;;10.00;99.90;;;;;;5052874;28;20219;-76
2022/12/28 13:12:23;;;;;;;1.30;0.80;;;10.00;99.90;;;;;;5054229;28;20172;-78
2022/12/28 13:14:58;;;;;;;1.97;0.63;;;10.00;99.90;;;;;;5052897;28;20250;-77
2022/12/28 13:17:24;;;;;;;1.83;0.90;;;10.00;99.90;;;;;;5035244;28;20229;-77
2022/12/28 13:19:50;;;;;;;1.47;0.80;;;9.90;99.90;;;;;;5035105;28;20195;-78
2022/12/28 13:22:26;;;;;;;1.23;0.53;;;9.90;99.90;;;;;;5053149;28;20172;-78
2022/12/28 13:24:52;;;;;;;2.87;0.90;;;9.90;99.90;;;;;;5052948;28;20608;-77
2022/12/28 13:27:19;;;;;;;3.80;1.17;;;9.90;99.90;;;;;;5033884;28;20254;-78
2022/12/28 13:29:51;;;;;;;5.03;1.10;;;9.90;99.90;;;;;;5034836;28;20207;-78
2022/12/28 13:32:33;;;;;;;2.67;0.67;;;9.90;99.90;;;;;;5035386;28;20262;-78
2022/12/28 13:34:59;;;;;;;3.10;1.13;;;9.90;99.90;;;;;;5035082;28;20171;-77
2022/12/28 13:37:25;;;;;;;2.53;0.80;;;9.90;99.90;;;;;;5052413;28;20254;-78